Time;durP1;ratioP1;P1;durP2;ratioP2;P2;SDS_P1;SDS_P2;PMS_P1;PMS_P2;Temp;Humidity;BMP_temperature;BMP_pressure;BME280_temperature;BME280_humidity;BME280_pressure;Samples;Min_cycle;Max_cycle;Signal;HPM_P1;HPM_P2
2021/05/16 00:01:29;;;;;;;6.20;1.35;;;10.30;99.90;;;;;;5074716;28;20059;-74
2021/05/16 00:03:55;;;;;;;5.07;1.65;;;10.30;99.90;;;;;;5090453;28;20120;-75
2021/05/16 00:06:20;;;;;;;10.73;2.40;;;10.30;99.90;;;;;;5074659;28;20107;-75
2021/05/16 00:08:48;;;;;;;8.25;1.60;;;10.30;99.90;;;;;;5074621;28;20028;-76
2021/05/16 00:11:14;;;;;;;4.82;1.80;;;10.30;99.90;;;;;;5074289;28;20115;-75
2021/05/16 00:13:40;;;;;;;18.23;1.85;;;10.40;99.90;;;;;;5074205;28;20037;-75
2021/05/16 00:16:06;;;;;;;13.63;1.50;;;10.40;99.90;;;;;;5073312;28;20031;-75
2021/05/16 00:18:32;;;;;;;6.60;1.45;;;10.40;99.90;;;;;;5074148;28;20504;-75
2021/05/16 00:20:57;;;;;;;8.63;1.58;;;10.30;99.90;;;;;;5074096;28;20075;-75
2021/05/16 00:23:23;;;;;;;9.25;1.45;;;10.30;99.90;;;;;;5073811;28;20543;-75
2021/05/16 00:25:49;;;;;;;3.63;0.98;;;10.30;99.90;;;;;;5074195;28;20055;-75
2021/05/16 00:28:15;;;;;;;6.75;1.75;;;10.20;99.90;;;;;;5074379;28;20029;-75
2021/05/16 00:30:40;;;;;;;4.43;1.50;;;10.30;99.90;;;;;;5073914;28;20037;-75
2021/05/16 00:33:06;;;;;;;5.63;2.00;;;10.20;99.90;;;;;;5074023;28;20090;-74
2021/05/16 00:35:33;;;;;;;7.22;1.58;;;10.20;99.90;;;;;;5073873;28;20044;-75
2021/05/16 00:38:01;;;;;;;5.97;1.88;;;10.10;99.90;;;;;;5072542;28;20021;-75
2021/05/16 00:40:28;;;;;;;6.32;1.67;;;10.10;99.90;;;;;;5073927;28;20173;-74
2021/05/16 00:42:54;;;;;;;5.70;1.50;;;10.00;99.90;;;;;;5073852;28;20044;-74
2021/05/16 00:45:27;;;;;;;6.35;1.95;;;10.00;99.90;;;;;;5074163;28;20113;-74
2021/05/16 00:48:02;;;;;;;5.57;1.45;;;10.00;99.90;;;;;;5073534;28;20055;-74
2021/05/16 00:50:40;;;;;;;8.95;1.42;;;10.00;99.90;;;;;;5074047;28;20464;-74
2021/05/16 00:53:06;;;;;;;10.30;2.00;;;10.00;99.90;;;;;;5073641;28;20033;-74
2021/05/16 00:55:32;;;;;;;4.95;1.35;;;10.00;99.90;;;;;;5073835;28;20029;-74
2021/05/16 00:57:58;;;;;;;6.53;1.67;;;10.00;99.90;;;;;;5073615;28;20035;-74
2021/05/16 01:00:32;;;;;;;3.85;1.25;;;10.00;99.90;;;;;;5073507;28;20036;-73
2021/05/16 01:02:58;;;;;;;4.65;1.33;;;10.00;99.90;;;;;;5073222;28;20488;-74
2021/05/16 01:05:24;;;;;;;2.88;1.25;;;9.80;99.90;;;;;;5073403;28;20036;-74
2021/05/16 01:07:50;;;;;;;4.10;1.45;;;9.80;99.90;;;;;;5072325;28;20024;-74
2021/05/16 01:10:18;;;;;;;10.45;2.83;;;9.70;99.90;;;;;;5073465;28;20036;-74
2021/05/16 01:12:49;;;;;;;4.85;1.27;;;9.70;99.90;;;;;;5073248;28;20024;-73
2021/05/16 01:15:19;;;;;;;5.88;2.80;;;9.50;99.90;;;;;;5073128;28;20032;-74
2021/05/16 01:17:47;;;;;;;2.72;1.27;;;9.50;99.90;;;;;;5073112;28;20078;-72
2021/05/16 01:20:29;;;;;;;3.92;1.70;;;9.50;99.90;;;;;;5072218;28;20033;-73
2021/05/16 01:23:03;;;;;;;6.50;2.20;;;9.50;99.90;;;;;;5073223;28;20028;-73
2021/05/16 01:25:35;;;;;;;4.07;1.50;;;9.50;99.90;;;;;;5073208;28;20064;-73
2021/05/16 01:28:01;;;;;;;6.40;1.85;;;9.50;99.90;;;;;;5072854;28;20499;-73
2021/05/16 01:30:28;;;;;;;4.32;2.25;;;9.50;99.90;;;;;;5073202;28;20044;-73
2021/05/16 01:32:54;;;;;;;6.55;1.30;;;9.50;99.90;;;;;;5072538;28;20569;-73
2021/05/16 01:35:22;;;;;;;5.90;1.42;;;9.60;99.90;;;;;;5070956;28;20072;-73
2021/05/16 01:37:49;;;;;;;3.95;1.30;;;9.70;99.90;;;;;;5072562;28;20028;-73
2021/05/16 01:40:17;;;;;;;2.92;1.13;;;9.80;99.90;;;;;;5071308;28;20047;-73
2021/05/16 01:42:49;;;;;;;4.53;0.95;;;9.80;99.90;;;;;;5072255;28;20083;-73
2021/05/16 01:45:17;;;;;;;3.45;1.10;;;9.90;99.90;;;;;;5071241;28;20060;-74
2021/05/16 01:47:43;;;;;;;3.03;1.20;;;9.90;99.90;;;;;;5071439;28;20074;-73
2021/05/16 01:50:18;;;;;;;7.95;1.60;;;9.90;99.90;;;;;;5071664;28;20029;-73
2021/05/16 01:52:47;;;;;;;7.32;1.85;;;10.00;99.90;;;;;;5071292;28;20521;-73
2021/05/16 01:55:16;;;;;;;7.47;1.10;;;10.00;99.90;;;;;;5072553;28;20370;-74
2021/05/16 01:57:43;;;;;;;2.90;0.85;;;10.10;99.90;;;;;;5071231;28;20033;-74
2021/05/16 02:00:15;;;;;;;2.60;0.93;;;10.10;99.90;;;;;;5071418;28;20074;-74
2021/05/16 02:02:42;;;;;;;3.38;1.75;;;10.10;99.90;;;;;;5071206;28;20028;-73
2021/05/16 02:05:10;;;;;;;2.45;0.80;;;10.10;99.90;;;;;;5071038;28;20032;-74
2021/05/16 02:07:36;;;;;;;3.67;0.85;;;10.10;99.90;;;;;;5072377;28;20032;-73
2021/05/16 02:10:05;;;;;;;2.15;0.80;;;10.20;99.90;;;;;;5072199;28;20060;-73
2021/05/16 02:12:31;;;;;;;2.20;1.00;;;10.20;99.90;;;;;;5072651;28;20113;-73
2021/05/16 02:14:57;;;;;;;3.55;1.05;;;10.30;99.90;;;;;;5072359;28;20067;-73
2021/05/16 02:17:23;;;;;;;3.05;0.70;;;10.30;99.90;;;;;;5072330;28;20487;-73
2021/05/16 02:19:49;;;;;;;4.40;1.20;;;10.40;99.90;;;;;;5070830;28;20123;-73
2021/05/16 02:22:15;;;;;;;4.63;1.10;;;10.40;99.90;;;;;;5072123;28;20025;-73
2021/05/16 02:24:44;;;;;;;1.63;0.90;;;10.40;99.90;;;;;;5072058;28;20397;-73
2021/05/16 02:27:11;;;;;;;2.95;1.20;;;10.40;99.90;;;;;;5072200;28;20020;-73
2021/05/16 02:29:38;;;;;;;4.10;1.10;;;10.40;99.90;;;;;;5070915;28;20037;-74
2021/05/16 02:32:07;;;;;;;4.68;1.30;;;10.40;99.90;;;;;;5072095;28;20028;-74
2021/05/16 02:34:34;;;;;;;6.28;1.20;;;10.40;99.90;;;;;;5071951;28;20086;-74
2021/05/16 02:37:00;;;;;;;1.92;0.82;;;10.40;99.90;;;;;;5072206;28;20495;-73
2021/05/16 02:39:26;;;;;;;2.13;1.05;;;10.30;99.90;;;;;;5072282;28;20064;-74
2021/05/16 02:41:52;;;;;;;2.92;1.27;;;10.30;99.90;;;;;;5072131;28;20098;-73
2021/05/16 02:44:19;;;;;;;3.72;1.20;;;10.20;99.90;;;;;;5071978;28;20032;-74
2021/05/16 02:46:46;;;;;;;4.72;1.83;;;10.20;99.90;;;;;;5072302;28;20032;-73
2021/05/16 02:49:13;;;;;;;12.07;1.73;;;10.20;99.90;;;;;;5076279;28;20490;-73
2021/05/16 02:51:39;;;;;;;5.20;1.52;;;10.20;99.90;;;;;;5076300;28;20047;-73
2021/05/16 02:54:06;;;;;;;3.03;1.35;;;10.20;99.90;;;;;;5075885;28;20111;-74
2021/05/16 02:56:31;;;;;;;3.70;1.40;;;10.20;99.90;;;;;;5076179;28;20037;-74
2021/05/16 02:58:58;;;;;;;2.83;1.50;;;10.20;99.90;;;;;;5075671;28;20066;-73
2021/05/16 03:01:24;;;;;;;3.83;1.50;;;10.20;99.90;;;;;;5076139;28;20500;-73
2021/05/16 03:03:50;;;;;;;3.63;1.50;;;10.10;99.90;;;;;;5075552;28;20036;-73
2021/05/16 03:06:15;;;;;;;4.65;2.22;;;10.20;99.90;;;;;;5075967;28;20028;-73
2021/05/16 03:08:41;;;;;;;6.78;2.08;;;10.30;99.90;;;;;;5075718;28;20033;-73
2021/05/16 03:11:07;;;;;;;6.15;1.80;;;10.30;99.90;;;;;;5075748;28;20035;-73
2021/05/16 03:13:33;;;;;;;2.22;1.38;;;10.30;99.90;;;;;;5074364;28;20051;-73
2021/05/16 03:15:58;;;;;;;7.45;1.63;;;10.30;99.90;;;;;;5075311;28;20036;-73
2021/05/16 03:18:25;;;;;;;4.35;1.98;;;10.30;99.90;;;;;;5075315;28;20044;-73
2021/05/16 03:20:51;;;;;;;5.32;1.60;;;10.30;99.90;;;;;;5075610;28;20094;-74
2021/05/16 03:23:17;;;;;;;3.45;1.75;;;10.20;99.90;;;;;;5075625;28;20032;-74
2021/05/16 03:25:43;;;;;;;6.70;2.30;;;10.30;99.90;;;;;;5075118;28;20115;-73
2021/05/16 03:28:09;;;;;;;5.68;2.13;;;10.30;99.90;;;;;;5075456;28;20043;-74
2021/05/16 03:30:35;;;;;;;5.70;2.22;;;10.20;99.90;;;;;;5075414;28;20107;-74
2021/05/16 03:33:02;;;;;;;3.78;2.10;;;10.20;99.90;;;;;;5075318;28;20039;-75
2021/05/16 03:35:28;;;;;;;8.93;2.13;;;10.10;99.90;;;;;;5074901;28;20032;-75
2021/05/16 03:37:53;;;;;;;8.38;3.00;;;10.10;99.90;;;;;;5074077;28;20427;-74
2021/05/16 03:40:19;;;;;;;4.75;2.30;;;10.10;99.90;;;;;;5075097;28;20036;-74
2021/05/16 03:42:45;;;;;;;7.25;3.03;;;10.10;99.90;;;;;;5074890;28;20029;-75
2021/05/16 03:45:12;;;;;;;7.20;2.55;;;10.10;99.90;;;;;;5075040;28;20112;-75
2021/05/16 03:47:39;;;;;;;7.03;2.42;;;10.00;99.90;;;;;;5074836;28;20021;-75
2021/05/16 03:50:08;;;;;;;7.07;2.60;;;10.00;99.90;;;;;;5074903;28;20100;-75
2021/05/16 03:52:34;;;;;;;4.57;2.83;;;10.00;99.90;;;;;;5075174;28;20127;-74
2021/05/16 03:55:01;;;;;;;6.68;2.90;;;10.00;99.90;;;;;;5074765;28;20039;-74
2021/05/16 03:57:27;;;;;;;5.32;2.58;;;10.00;99.90;;;;;;5075038;28;20025;-73
2021/05/16 03:59:53;;;;;;;8.32;3.58;;;10.10;99.90;;;;;;5072564;28;20025;-74
2021/05/16 04:02:19;;;;;;;7.53;3.08;;;10.10;99.90;;;;;;5074679;28;20134;-74
2021/05/16 04:04:45;;;;;;;7.55;3.22;;;10.10;99.90;;;;;;5074800;28;20032;-74
2021/05/16 04:07:11;;;;;;;7.32;3.40;;;10.00;99.90;;;;;;5074770;28;20032;-74
2021/05/16 04:09:37;;;;;;;8.95;3.50;;;10.10;99.90;;;;;;5074801;28;20039;-75
2021/05/16 04:12:03;;;;;;;7.70;3.03;;;10.10;99.90;;;;;;5074565;28;20104;-74
2021/05/16 04:14:29;;;;;;;9.50;4.13;;;10.10;99.90;;;;;;5074445;28;20063;-74
2021/05/16 04:16:56;;;;;;;6.50;2.90;;;10.10;99.90;;;;;;5074171;28;20448;-74
2021/05/16 04:19:22;;;;;;;7.53;2.72;;;10.10;99.90;;;;;;5074323;28;20044;-75
2021/05/16 04:21:48;;;;;;;7.43;2.42;;;10.10;99.90;;;;;;5074523;28;20033;-73
2021/05/16 04:24:14;;;;;;;8.30;2.70;;;10.10;99.90;;;;;;5074508;28;20028;-75
2021/05/16 04:26:40;;;;;;;7.95;2.90;;;10.10;99.90;;;;;;5074490;28;20060;-73
2021/05/16 04:29:06;;;;;;;7.82;2.80;;;10.10;99.90;;;;;;5074139;28;20067;-73
2021/05/16 04:31:32;;;;;;;6.22;2.58;;;10.10;99.90;;;;;;5074357;28;20472;-73
2021/05/16 04:33:58;;;;;;;5.60;2.45;;;10.10;99.90;;;;;;5073942;28;20115;-74
2021/05/16 04:36:26;;;;;;;7.03;2.60;;;10.10;99.90;;;;;;5074329;28;20029;-73
2021/05/16 04:38:52;;;;;;;7.43;2.88;;;10.20;99.90;;;;;;5073839;28;20455;-73
2021/05/16 04:41:19;;;;;;;5.63;2.40;;;10.20;99.90;;;;;;5073880;28;20123;-74
2021/05/16 04:43:46;;;;;;;5.75;2.78;;;10.20;99.90;;;;;;5074102;28;20036;-74
2021/05/16 04:46:12;;;;;;;8.77;3.30;;;10.20;99.90;;;;;;5073964;28;20047;-74
2021/05/16 04:48:38;;;;;;;10.75;2.50;;;10.20;99.90;;;;;;5073823;28;20032;-74
2021/05/16 04:51:04;;;;;;;4.65;2.33;;;10.30;99.90;;;;;;5073801;28;20362;-73
2021/05/16 04:53:33;;;;;;;10.30;3.03;;;10.30;99.90;;;;;;5073716;28;20035;-73
2021/05/16 04:55:59;;;;;;;7.25;2.80;;;10.10;99.90;;;;;;5072427;28;20035;-73
2021/05/16 04:58:26;;;;;;;9.20;3.10;;;10.20;99.90;;;;;;5073854;28;20073;-75
2021/05/16 05:00:52;;;;;;;8.50;3.22;;;10.10;99.90;;;;;;5073508;28;20107;-75
2021/05/16 05:03:20;;;;;;;9.52;3.38;;;10.20;99.90;;;;;;5073454;28;20531;-73
2021/05/16 05:05:46;;;;;;;10.82;3.35;;;10.10;99.90;;;;;;5072388;28;20029;-74
2021/05/16 05:08:12;;;;;;;8.27;3.13;;;10.10;99.90;;;;;;5073439;28;20032;-73
2021/05/16 05:10:38;;;;;;;10.88;3.40;;;10.10;99.90;;;;;;5072363;28;20036;-74
2021/05/16 05:13:04;;;;;;;12.73;3.80;;;10.10;99.90;;;;;;5073213;28;20033;-72
2021/05/16 05:15:30;;;;;;;8.27;3.78;;;10.10;99.90;;;;;;5073390;28;20029;-73
2021/05/16 05:17:56;;;;;;;11.02;3.30;;;10.10;99.90;;;;;;5073082;28;20020;-73
2021/05/16 05:20:23;;;;;;;7.03;3.13;;;10.20;99.90;;;;;;5073217;28;20115;-73
2021/05/16 05:22:48;;;;;;;10.40;3.08;;;10.20;99.90;;;;;;5072984;28;20116;-73
2021/05/16 05:25:14;;;;;;;12.50;4.07;;;10.30;99.90;;;;;;5073149;28;20449;-73
2021/05/16 05:27:43;;;;;;;12.23;3.33;;;10.30;99.90;;;;;;5073188;28;20028;-74
2021/05/16 05:30:09;;;;;;;7.70;3.03;;;10.30;99.90;;;;;;5072891;28;20060;-73
2021/05/16 05:32:35;;;;;;;9.02;2.67;;;10.40;99.90;;;;;;5073116;28;20021;-73
2021/05/16 05:35:01;;;;;;;6.00;2.95;;;10.40;99.90;;;;;;5072694;28;20029;-74
2021/05/16 05:37:26;;;;;;;6.45;3.13;;;10.40;99.90;;;;;;5073082;28;20027;-73
2021/05/16 05:39:52;;;;;;;5.20;2.60;;;10.40;99.90;;;;;;5072773;28;20086;-72
2021/05/16 05:42:18;;;;;;;5.65;2.75;;;10.40;99.90;;;;;;5072388;28;20071;-66
2021/05/16 05:44:43;;;;;;;7.28;2.88;;;10.40;99.90;;;;;;5072700;28;20120;-71
2021/05/16 05:47:11;;;;;;;7.18;3.15;;;10.40;99.90;;;;;;5059237;28;20493;-70
2021/05/16 05:49:38;;;;;;;7.13;3.15;;;10.40;99.90;;;;;;5064017;28;20150;-73
2021/05/16 05:52:04;;;;;;;5.65;2.78;;;10.40;99.90;;;;;;5071597;28;20033;-74
2021/05/16 05:54:30;;;;;;;7.07;3.38;;;10.40;99.90;;;;;;5075576;28;20040;-75
2021/05/16 05:56:56;;;;;;;6.65;2.55;;;10.50;99.90;;;;;;5092644;28;20028;-73
2021/05/16 05:59:21;;;;;;;5.78;2.55;;;10.50;99.90;;;;;;5092897;28;20028;-77
2021/05/16 06:01:47;;;;;;;5.28;2.35;;;10.60;99.90;;;;;;5092821;28;20157;-73
2021/05/16 06:04:13;;;;;;;7.35;2.65;;;10.60;99.90;;;;;;5092748;28;20181;-72
2021/05/16 06:06:39;;;;;;;7.55;2.45;;;10.50;99.90;;;;;;5092788;28;20537;-72
2021/05/16 06:09:05;;;;;;;7.78;2.40;;;10.60;99.90;;;;;;5092667;28;20028;-76
2021/05/16 06:11:31;;;;;;;8.85;2.85;;;10.60;99.90;;;;;;5091239;28;20033;-74
2021/05/16 06:13:57;;;;;;;5.93;2.25;;;10.60;99.90;;;;;;5092166;28;20044;-71
2021/05/16 06:16:23;;;;;;;7.88;2.78;;;10.60;99.90;;;;;;5092659;28;20032;-73
2021/05/16 06:18:49;;;;;;;6.25;2.33;;;10.70;99.90;;;;;;5092211;28;20035;-71
2021/05/16 06:21:15;;;;;;;7.82;2.85;;;10.80;99.90;;;;;;5075474;28;20043;-72
2021/05/16 06:24:00;;;;;;;5.00;2.47;;;10.70;99.90;;;;;;5072197;28;20108;-70
2021/05/16 06:26:26;;;;;;;9.60;2.38;;;10.70;99.90;;;;;;5070973;28;20044;-70
2021/05/16 06:28:51;;;;;;;5.05;2.30;;;10.80;99.90;;;;;;5072137;28;20392;-75
2021/05/16 06:31:17;;;;;;;6.53;2.33;;;10.90;99.90;;;;;;5072259;28;20071;-75
2021/05/16 06:33:43;;;;;;;6.90;2.75;;;11.00;99.90;;;;;;5071784;28;20029;-78
2021/05/16 06:36:09;;;;;;;5.53;2.20;;;11.00;99.90;;;;;;5071885;28;20043;-74
2021/05/16 06:38:34;;;;;;;7.78;2.60;;;11.10;99.90;;;;;;5071975;28;20025;-70
2021/05/16 06:41:00;;;;;;;8.73;2.08;;;11.20;99.90;;;;;;5072074;28;20037;-75
2021/05/16 06:43:26;;;;;;;7.00;2.00;;;11.20;99.90;;;;;;5072099;28;20025;-72
2021/05/16 06:45:52;;;;;;;5.30;1.92;;;11.20;99.90;;;;;;5071393;28;20036;-70
2021/05/16 06:48:18;;;;;;;4.13;1.58;;;11.20;99.90;;;;;;5072066;28;20029;-70
2021/05/16 06:50:44;;;;;;;4.05;1.83;;;11.20;99.90;;;;;;5083624;28;20119;-73
2021/05/16 06:53:09;;;;;;;5.20;1.75;;;11.20;99.90;;;;;;5090246;28;20074;-71
2021/05/16 06:55:35;;;;;;;8.35;2.30;;;11.20;99.90;;;;;;5092290;28;20081;-71
2021/05/16 06:58:01;;;;;;;8.55;2.05;;;11.20;99.90;;;;;;5091862;28;20111;-72
2021/05/16 07:00:27;;;;;;;7.10;1.92;;;11.20;99.90;;;;;;5092175;28;20118;-73
2021/05/16 07:02:53;;;;;;;3.42;1.92;;;11.30;99.90;;;;;;5092017;28;20028;-71
2021/05/16 07:05:19;;;;;;;6.38;1.90;;;11.40;99.90;;;;;;5092042;28;20078;-69
2021/05/16 07:07:44;;;;;;;10.88;2.45;;;11.50;99.90;;;;;;5092058;28;20089;-62
2021/05/16 07:10:11;;;;;;;5.82;2.40;;;11.50;99.90;;;;;;5091991;28;20059;-70
2021/05/16 07:12:36;;;;;;;8.68;2.03;;;11.60;99.90;;;;;;5092008;28;20028;-69
2021/05/16 07:15:03;;;;;;;5.97;1.88;;;11.60;99.90;;;;;;5091741;28;20073;-69
2021/05/16 07:17:30;;;;;;;5.85;2.25;;;11.60;99.90;;;;;;5092185;28;20032;-69
2021/05/16 07:19:55;;;;;;;8.32;2.05;;;11.50;99.90;;;;;;5085758;28;20446;-68
2021/05/16 07:22:21;;;;;;;7.28;2.15;;;11.70;99.90;;;;;;5071368;28;20025;-69
2021/05/16 07:24:47;;;;;;;6.80;2.10;;;11.80;99.90;;;;;;5071644;28;20119;-69
2021/05/16 07:27:13;;;;;;;5.40;1.65;;;11.80;99.90;;;;;;5071672;28;20094;-69
2021/05/16 07:29:39;;;;;;;6.45;1.52;;;12.00;99.90;;;;;;5071759;28;20033;-70
2021/05/16 07:32:05;;;;;;;7.25;2.28;;;12.00;99.90;;;;;;5071512;28;20086;-70
2021/05/16 07:34:31;;;;;;;2.80;1.45;;;12.10;99.90;;;;;;5073253;28;20040;-70
2021/05/16 07:36:56;;;;;;;3.13;1.10;;;12.30;99.90;;;;;;5075258;28;20039;-70
2021/05/16 07:39:22;;;;;;;3.95;1.60;;;12.30;99.90;;;;;;5073588;28;20060;-70
2021/05/16 07:41:48;;;;;;;5.45;1.40;;;12.50;99.90;;;;;;5073983;28;20040;-70
2021/05/16 07:44:14;;;;;;;3.55;1.35;;;12.50;99.90;;;;;;5074975;28;20562;-70
2021/05/16 07:46:39;;;;;;;4.85;1.52;;;12.50;99.90;;;;;;5077601;28;20016;-70
2021/05/16 07:49:05;;;;;;;5.43;1.90;;;12.60;99.90;;;;;;5074784;28;20508;-69
2021/05/16 07:51:31;;;;;;;8.07;1.75;;;12.80;99.90;;;;;;5074753;28;20024;-70
2021/05/16 07:53:56;;;;;;;4.47;1.02;;;12.80;99.90;;;;;;5074741;28;20488;-69
2021/05/16 07:56:23;;;;;;;3.90;1.20;;;12.90;99.90;;;;;;5074721;28;20028;-69
2021/05/16 07:58:49;;;;;;;3.13;1.20;;;13.10;99.90;;;;;;5074830;28;20031;-69
2021/05/16 08:01:15;;;;;;;8.88;1.92;;;13.20;99.90;;;;;;5074724;28;20032;-70
2021/05/16 08:03:41;;;;;;;8.18;1.30;;;13.30;99.90;;;;;;5074725;28;20028;-71
2021/05/16 08:06:07;;;;;;;4.85;1.10;;;13.40;99.90;;;;;;5074272;28;20051;-71
2021/05/16 08:08:33;;;;;;;6.50;1.58;;;13.30;99.90;;;;;;5074260;28;20033;-70
2021/05/16 08:10:59;;;;;;;4.95;1.20;;;13.40;99.90;;;;;;5074385;28;20029;-70
2021/05/16 08:13:25;;;;;;;4.72;1.20;;;13.50;99.90;;;;;;5074315;28;20298;-69
2021/05/16 08:15:50;;;;;;;10.05;1.10;;;13.50;99.90;;;;;;5074084;28;20035;-69
2021/05/16 08:18:16;;;;;;;6.47;2.25;;;13.50;99.90;;;;;;5073975;28;20064;-70
2021/05/16 08:20:42;;;;;;;5.78;1.20;;;13.40;99.90;;;;;;5086389;28;20563;-70
2021/05/16 08:23:08;;;;;;;6.90;1.40;;;13.30;99.90;;;;;;5093979;28;20418;-69
2021/05/16 08:25:36;;;;;;;4.78;1.15;;;13.40;99.90;;;;;;5094239;28;20039;-69
2021/05/16 08:28:02;;;;;;;5.93;1.67;;;13.30;99.90;;;;;;5088398;28;20024;-70
2021/05/16 08:30:28;;;;;;;5.10;1.80;;;13.40;99.90;;;;;;5052201;28;20091;-69
2021/05/16 08:32:55;;;;;;;5.82;1.40;;;13.60;99.90;;;;;;5054056;28;20025;-69
2021/05/16 08:35:21;;;;;;;5.82;1.38;;;13.90;99.90;;;;;;5052465;28;20141;-69
2021/05/16 08:37:47;;;;;;;7.10;1.67;;;14.20;99.90;;;;;;5054067;28;20112;-69
2021/05/16 08:40:14;;;;;;;5.57;1.17;;;14.30;99.90;;;;;;5053823;28;20072;-69
2021/05/16 08:42:42;;;;;;;6.45;1.60;;;14.30;99.90;;;;;;5053898;28;20025;-69
2021/05/16 08:45:10;;;;;;;4.90;1.02;;;14.20;99.90;;;;;;5053807;28;20134;-69
2021/05/16 08:47:38;;;;;;;8.15;1.55;;;14.10;99.90;;;;;;5052751;28;20032;-69
2021/05/16 08:50:08;;;;;;;6.82;1.40;;;14.10;99.90;;;;;;5067627;28;20035;-69
2021/05/16 08:52:34;;;;;;;5.63;2.17;;;14.10;99.90;;;;;;5094148;28;20035;-69
2021/05/16 08:54:59;;;;;;;6.90;1.20;;;14.10;99.90;;;;;;5093821;28;20031;-69
2021/05/16 08:57:25;;;;;;;6.43;1.73;;;14.10;99.90;;;;;;5093845;28;20028;-69
2021/05/16 09:00:18;;;;;;;4.10;1.17;;;14.10;99.90;;;;;;5092536;28;20024;-69
2021/05/16 09:03:14;;;;;;;4.80;1.70;;;14.10;99.90;;;;;;5093652;28;20028;-69
2021/05/16 09:05:44;;;;;;;7.57;1.45;;;14.40;99.90;;;;;;5093375;28;20439;-71
2021/05/16 09:08:20;;;;;;;12.07;2.00;;;14.70;99.90;;;;;;5092057;28;20046;-71
2021/05/16 09:10:56;;;;;;;3.90;1.45;;;14.80;99.90;;;;;;5093190;28;20036;-71
2021/05/16 09:13:23;;;;;;;10.15;2.03;;;14.70;99.90;;;;;;5092073;28;20043;-72
2021/05/16 09:16:09;;;;;;;10.82;2.22;;;14.70;99.90;;;;;;5093400;28;20106;-71
2021/05/16 09:18:46;;;;;;;7.13;1.40;;;14.70;99.90;;;;;;5093361;28;20105;-71
2021/05/16 09:21:34;;;;;;;7.90;1.40;;;14.70;99.90;;;;;;5076545;28;20028;-71
2021/05/16 09:24:02;;;;;;;4.30;1.33;;;14.50;99.90;;;;;;5073231;28;20043;-71
2021/05/16 09:26:49;;;;;;;9.45;1.25;;;14.40;99.90;;;;;;5071866;28;20039;-71
2021/05/16 09:29:29;;;;;;;6.50;1.27;;;14.50;99.90;;;;;;5071897;28;20505;-71
2021/05/16 09:31:58;;;;;;;9.43;1.63;;;14.50;99.90;;;;;;5072829;28;20032;-72
2021/05/16 09:34:24;;;;;;;5.47;1.27;;;14.80;99.90;;;;;;5072787;28;20065;-72
2021/05/16 09:36:50;;;;;;;6.75;1.10;;;15.00;99.90;;;;;;5072535;28;20397;-71
2021/05/16 09:39:25;;;;;;;6.03;1.35;;;15.10;99.90;;;;;;5072728;28;20107;-71
2021/05/16 09:42:09;;;;;;;3.97;1.13;;;15.30;99.90;;;;;;5072893;28;20052;-71
2021/05/16 09:44:45;;;;;;;4.82;1.02;;;15.40;99.90;;;;;;5072754;28;20080;-72
2021/05/16 09:47:26;;;;;;;7.82;1.10;;;15.60;99.90;;;;;;5072693;28;20024;-71
2021/05/16 09:49:57;;;;;;;11.02;1.60;;;15.70;99.90;;;;;;5078070;28;20422;-71
2021/05/16 09:52:31;;;;;;;6.93;1.58;;;15.90;99.90;;;;;;5092600;28;20495;-71
2021/05/16 09:55:11;;;;;;;6.70;1.30;;;16.40;99.90;;;;;;5088641;28;20028;-71
2021/05/16 09:57:46;;;;;;;8.50;1.33;;;16.50;99.90;;;;;;5072208;28;20106;-71
2021/05/16 10:00:15;;;;;;;7.97;1.95;;;16.40;99.90;;;;;;5072659;28;20028;-71
2021/05/16 10:02:41;;;;;;;5.10;1.17;;;16.30;99.90;;;;;;5072447;28;20032;-68
2021/05/16 10:05:10;;;;;;;6.30;1.15;;;16.20;99.90;;;;;;5072493;28;20127;-69
2021/05/16 10:07:38;;;;;;;6.07;1.30;;;16.10;99.90;;;;;;5072348;28;20359;-72
2021/05/16 10:10:11;;;;;;;7.43;1.20;;;16.00;99.90;;;;;;5072511;28;20111;-72
2021/05/16 10:12:39;;;;;;;11.35;2.00;;;15.90;99.90;;;;;;5072270;28;20515;-73
2021/05/16 10:15:25;;;;;;;6.05;1.42;;;16.10;99.90;;;;;;5071244;28;20070;-73
2021/05/16 10:17:57;;;;;;;7.78;2.15;;;16.10;99.90;;;;;;5054681;28;20035;-71
2021/05/16 10:20:27;;;;;;;6.90;1.80;;;15.90;99.90;;;;;;5063854;28;20035;-73
2021/05/16 10:22:56;;;;;;;9.88;1.55;;;16.20;99.90;;;;;;5091302;28;20116;-70
2021/05/16 10:25:42;;;;;;;7.85;1.42;;;16.30;99.90;;;;;;5092472;28;20549;-71
2021/05/16 10:28:11;;;;;;;6.15;1.58;;;16.60;99.90;;;;;;5092761;28;20059;-71
2021/05/16 10:30:38;;;;;;;9.13;2.03;;;16.80;99.90;;;;;;5092445;28;20481;-70
2021/05/16 10:33:04;;;;;;;6.50;1.23;;;16.70;99.90;;;;;;5092455;28;20085;-71
2021/05/16 10:35:50;;;;;;;6.63;1.25;;;16.50;99.90;;;;;;5092100;28;20044;-71
2021/05/16 10:38:40;;;;;;;7.53;1.10;;;16.20;99.90;;;;;;5092303;28;20031;-71
2021/05/16 10:41:25;;;;;;;6.65;1.25;;;15.90;99.90;;;;;;5092134;28;20055;-71
2021/05/16 10:44:18;;;;;;;3.38;1.20;;;15.60;99.90;;;;;;5092461;28;20055;-72
2021/05/16 10:46:45;;;;;;;5.72;1.42;;;14.00;99.90;;;;;;5090870;28;20032;-71
2021/05/16 10:49:30;;;;;;;7.32;0.98;;;13.10;99.90;;;;;;5074924;28;20519;-71
2021/05/16 10:51:57;;;;;;;7.90;1.27;;;13.00;99.90;;;;;;5050871;28;20033;-71
2021/05/16 10:54:31;;;;;;;4.32;1.33;;;13.00;99.90;;;;;;5050115;28;20193;-71
2021/05/16 10:57:23;;;;;;;7.03;1.60;;;13.40;99.90;;;;;;5051902;28;20098;-71
2021/05/16 10:59:50;;;;;;;8.25;1.52;;;13.80;99.90;;;;;;5051937;28;20036;-70
2021/05/16 11:02:59;;;;;;;5.20;1.42;;;14.10;99.90;;;;;;5051697;28;20029;-71
2021/05/16 11:08:32;;;;;;;8.18;2.00;;;14.80;99.90;;;;;;5051648;28;20040;-70
2021/05/16 11:11:00;;;;;;;4.80;1.92;;;15.10;99.90;;;;;;5024019;28;20084;-70
2021/05/16 11:13:33;;;;;;;5.57;1.30;;;15.30;99.90;;;;;;5054580;28;20029;-71
2021/05/16 11:16:07;;;;;;;3.80;1.10;;;15.50;99.90;;;;;;5055568;28;20039;-71
2021/05/16 11:18:34;;;;;;;5.63;1.10;;;15.70;99.90;;;;;;5053686;28;20063;-72
2021/05/16 11:21:03;;;;;;;6.63;1.02;;;16.00;99.90;;;;;;5084954;28;20020;-72
2021/05/16 11:23:31;;;;;;;7.30;1.20;;;16.40;99.90;;;;;;5095444;28;20032;-72
2021/05/16 11:26:01;;;;;;;5.05;1.00;;;16.50;99.90;;;;;;5095681;28;20434;-71
2021/05/16 11:28:31;;;;;;;5.65;1.33;;;16.70;99.90;;;;;;5095673;28;20036;-72
2021/05/16 11:30:57;;;;;;;5.60;1.20;;;16.60;99.90;;;;;;5095863;28;20040;-71
2021/05/16 11:33:32;;;;;;;5.47;1.25;;;16.80;99.90;;;;;;5095130;28;20028;-71
2021/05/16 11:36:09;;;;;;;5.43;1.05;;;16.60;99.90;;;;;;5095299;28;20050;-71
2021/05/16 11:38:48;;;;;;;7.25;1.38;;;16.60;99.90;;;;;;5094011;28;20475;-71
2021/05/16 11:41:28;;;;;;;6.72;1.30;;;16.70;99.90;;;;;;5111001;28;20043;-71
2021/05/16 11:43:54;;;;;;;5.00;1.10;;;16.60;99.90;;;;;;5095309;28;20085;-71
2021/05/16 11:46:45;;;;;;;6.13;1.33;;;16.80;99.90;;;;;;5095149;28;20028;-72
2021/05/16 11:49:24;;;;;;;5.28;1.73;;;17.20;99.90;;;;;;5095335;28;20032;-71
2021/05/16 11:51:51;;;;;;;8.00;1.50;;;17.60;99.90;;;;;;5053600;28;20040;-71
2021/05/16 11:54:16;;;;;;;8.63;1.63;;;17.60;99.90;;;;;;5054616;28;20025;-71
2021/05/16 11:56:49;;;;;;;6.32;1.27;;;17.50;99.90;;;;;;5054702;28;20075;-72
2021/05/16 11:59:15;;;;;;;4.90;0.85;;;17.50;99.90;;;;;;5054930;28;20058;-71
2021/05/16 12:01:46;;;;;;;10.63;1.60;;;17.50;99.90;;;;;;5054556;28;20037;-61
2021/05/16 12:04:15;;;;;;;5.00;1.10;;;17.30;99.90;;;;;;5074526;28;20107;-61
2021/05/16 12:06:43;;;;;;;6.22;1.65;;;17.50;99.90;;;;;;5074416;28;20039;-60
2021/05/16 12:09:17;;;;;;;4.57;1.05;;;17.80;99.90;;;;;;5074431;28;20086;-61
2021/05/16 12:11:51;;;;;;;6.97;1.33;;;18.20;98.10;;;;;;5074509;28;20036;-60
2021/05/16 12:14:22;;;;;;;5.43;0.98;;;18.20;96.60;;;;;;5073953;28;20453;-61
2021/05/16 12:16:58;;;;;;;5.80;1.42;;;17.90;96.90;;;;;;5074476;28;20036;-61
2021/05/16 12:19:34;;;;;;;3.15;0.80;;;17.90;97.60;;;;;;5073142;28;20055;-60
2021/05/16 12:22:03;;;;;;;4.68;1.08;;;17.90;96.70;;;;;;5074490;28;20048;-61
2021/05/16 12:24:32;;;;;;;5.20;1.00;;;17.60;97.00;;;;;;5073850;28;20024;-61
2021/05/16 12:26:59;;;;;;;7.32;1.35;;;17.40;98.20;;;;;;5074430;28;20519;-60
2021/05/16 12:29:27;;;;;;;6.50;1.60;;;17.20;98.40;;;;;;5073886;28;20033;-61
2021/05/16 12:31:53;;;;;;;7.18;1.00;;;17.10;97.50;;;;;;5073049;28;20132;-60
2021/05/16 12:34:27;;;;;;;5.72;1.27;;;17.00;98.10;;;;;;5074032;28;20036;-59
2021/05/16 12:36:58;;;;;;;5.43;1.08;;;16.90;98.70;;;;;;5073894;28;20106;-60
2021/05/16 12:39:59;;;;;;;4.97;1.48;;;16.90;98.30;;;;;;5073598;28;20174;-60
2021/05/16 12:42:35;;;;;;;3.08;1.08;;;16.90;99.30;;;;;;5041067;28;20044;-60
2021/05/16 12:45:16;;;;;;;8.95;1.65;;;17.00;98.20;;;;;;5073793;28;20115;-60
2021/05/16 12:47:58;;;;;;;4.30;1.10;;;17.40;98.40;;;;;;5073621;28;20040;-59
2021/05/16 12:50:49;;;;;;;7.18;1.10;;;17.70;97.50;;;;;;5083396;28;20043;-60
2021/05/16 12:53:24;;;;;;;3.10;0.80;;;18.20;97.70;;;;;;5081385;28;20040;-58
2021/05/16 12:56:16;;;;;;;4.05;0.80;;;18.50;94.70;;;;;;5093648;28;20031;-58
2021/05/16 12:59:01;;;;;;;5.85;0.95;;;18.40;95.10;;;;;;5093442;28;20036;-59